Current Weather

Chicago O'Hare International

Chicago, Illinois (KORD)

Report from: Thursday, August 18, 2022 11:51 PM CDT
Current time: Friday, August 19, 2022 12:48 AM CDT

Nearby weather
Weather history
Weather forecast

Temperature22.2°C (72.0°F)
Dew point15.6°C (60.1°F)
Winds 4 kts (2.1 m/s, 4.6 mph) South (190°)
Visibility10 mi. (16.1 km)
Clouds Few clouds 25,000 ft. (7,620 m)
Altimeter29.94 in.Hg (1014 mB)
Relative humidity66 %
Density altitude1,062 ft. (324 m)
Sea-level pressure101.4 kPa (1014 mB, 29.93 in.Hg)
Remarks Automated weather observing station with precipitation discriminator
Flight conditions Visual Meteorological Conditions
Raw dataKORD 190451Z 19004KT 10SM FEW250 22/16 A2994 RMK AO2 SLP135 T02220156
An unhandled exception has occurred. See browser dev tools for details. Reload 🗙